Time;durP1;ratioP1;P1;durP2;ratioP2;P2;SDS_P1;SDS_P2;PMS_P1;PMS_P2;Temp;Humidity;BMP_temperature;BMP_pressure;BME280_temperature;BME280_humidity;BME280_pressure;Samples;Min_cycle;Max_cycle;Signal;HPM_P1;HPM_P2
2021/03/15 00:00:43;;;;;;;2.15;1.48;;;;;;;;;;5024612;28;20212;-51
2021/03/15 00:03:10;;;;;;;2.67;1.50;;;;;;;;;;5034343;28;20184;-51
2021/03/15 00:05:36;;;;;;;1.65;1.42;;;;;;;;;;5029661;28;20211;-51
2021/03/15 00:08:02;;;;;;;2.60;1.33;;;;;;;;;;5022021;28;20470;-51
2021/03/15 00:10:28;;;;;;;2.70;1.33;;;;;;;;;;5017541;28;20204;-51
2021/03/15 00:12:54;;;;;;;1.75;1.42;;;;;;;;;;5025389;28;20180;-51
2021/03/15 00:15:20;;;;;;;2.28;1.70;;;;;;;;;;5024843;28;20547;-51
2021/03/15 00:17:47;;;;;;;2.90;1.52;;;;;;;;;;5036651;28;20183;-51
2021/03/15 00:20:14;;;;;;;2.67;1.33;;;;;;;;;;5036654;28;20199;-51
2021/03/15 00:22:41;;;;;;;2.00;1.30;;;;;;;;;;5033815;28;20179;-51
2021/03/15 00:25:07;;;;;;;2.05;1.30;;;;;;;;;;5016593;28;20164;-51
2021/03/15 00:27:34;;;;;;;1.50;1.30;;;;;;;;;;5023473;28;20184;-51
2021/03/15 00:30:00;;;;;;;1.65;1.27;;;;;;;;;;5030884;28;20303;-51
2021/03/15 00:32:26;;;;;;;2.90;1.40;;;;;;;;;;5016396;28;20172;-51
2021/03/15 00:34:52;;;;;;;2.25;1.40;;;;;;;;;;5015449;28;20173;-50
2021/03/15 00:37:19;;;;;;;1.95;1.15;;;;;;;;;;5031398;28;20180;-50
2021/03/15 00:39:45;;;;;;;2.50;1.27;;;;;;;;;;5016488;28;20184;-50
2021/03/15 00:42:11;;;;;;;1.92;1.27;;;;;;;;;;5031060;28;20270;-50
2021/03/15 00:44:37;;;;;;;2.80;1.27;;;;;;;;;;5035535;28;20172;-50
2021/03/15 00:47:03;;;;;;;1.10;0.95;;;;;;;;;;5024788;28;20184;-50
2021/03/15 00:49:29;;;;;;;1.48;1.10;;;;;;;;;;5015974;28;20219;-50
2021/03/15 00:51:55;;;;;;;2.78;1.50;;;;;;;;;;5016303;28;20184;-50
2021/03/15 00:54:22;;;;;;;1.67;1.10;;;;;;;;;;5035226;28;20270;-50
2021/03/15 00:56:48;;;;;;;2.10;1.10;;;;;;;;;;5034129;28;20179;-50
2021/03/15 00:59:14;;;;;;;1.30;1.10;;;;;;;;;;5038962;28;20495;-50
2021/03/15 01:01:41;;;;;;;1.60;1.00;;;;;;;;;;5034664;28;20478;-50
2021/03/15 01:04:07;;;;;;;1.48;1.20;;;;;;;;;;5033875;28;20253;-50
2021/03/15 01:06:33;;;;;;;1.33;1.05;;;;;;;;;;5034261;28;20180;-50
2021/03/15 01:08:59;;;;;;;1.73;1.20;;;;;;;;;;5033971;28;20203;-50
2021/03/15 01:11:25;;;;;;;1.90;1.15;;;;;;;;;;5022288;28;20226;-50
2021/03/15 01:13:52;;;;;;;0.95;0.85;;;;;;;;;;5016011;28;20551;-50
2021/03/15 01:16:18;;;;;;;1.13;1.00;;;;;;;;;;5015182;28;20202;-50
2021/03/15 01:18:44;;;;;;;1.40;1.20;;;;;;;;;;5016853;28;20198;-50
2021/03/15 01:21:14;;;;;;;1.10;1.00;;;;;;;;;;5015730;28;20665;-50
2021/03/15 01:23:40;;;;;;;1.30;1.10;;;;;;;;;;5024499;28;20635;-50
2021/03/15 01:26:06;;;;;;;0.90;0.90;;;;;;;;;;5022096;28;20842;-50
2021/03/15 01:28:32;;;;;;;1.65;0.88;;;;;;;;;;5031626;28;20195;-50
2021/03/15 01:31:00;;;;;;;0.80;0.80;;;;;;;;;;5035630;28;20434;-50
2021/03/15 01:33:26;;;;;;;1.10;1.00;;;;;;;;;;5035297;28;20255;-50
2021/03/15 01:35:52;;;;;;;1.40;1.20;;;;;;;;;;5028124;28;20285;-50
2021/03/15 01:38:18;;;;;;;1.20;1.10;;;;;;;;;;5026482;28;20188;-50
2021/03/15 01:40:44;;;;;;;0.90;0.90;;;;;;;;;;5020470;28;20259;-50
2021/03/15 01:43:11;;;;;;;1.00;0.93;;;;;;;;;;5026477;28;20188;-50
2021/03/15 01:45:37;;;;;;;1.20;1.10;;;;;;;;;;5014852;28;20236;-50
2021/03/15 01:48:04;;;;;;;1.38;1.10;;;;;;;;;;5028838;28;20176;-50
2021/03/15 01:50:30;;;;;;;0.90;0.82;;;;;;;;;;5034962;28;20200;-51
2021/03/15 01:52:56;;;;;;;1.15;0.85;;;;;;;;;;5032431;28;20176;-51
2021/03/15 01:55:23;;;;;;;1.30;0.88;;;;;;;;;;5031075;28;20184;-51
2021/03/15 01:57:49;;;;;;;1.00;0.90;;;;;;;;;;5039950;28;20172;-51
2021/03/15 02:00:16;;;;;;;1.50;1.00;;;;;;;;;;5025224;28;20184;-51
2021/03/15 02:02:45;;;;;;;1.40;0.80;;;;;;;;;;5032310;28;20207;-51
2021/03/15 02:05:11;;;;;;;1.00;0.90;;;;;;;;;;5025588;28;20618;-51
2021/03/15 02:07:37;;;;;;;1.10;0.77;;;;;;;;;;5030058;28;20793;-51
2021/03/15 02:10:05;;;;;;;0.80;0.70;;;;;;;;;;5034285;28;20250;-51
2021/03/15 02:12:57;;;;;;;0.70;0.63;;;;;;;;;;5018111;28;20172;-51
2021/03/15 02:15:27;;;;;;;1.45;0.90;;;;;;;;;;5003985;28;20184;-51
2021/03/15 02:18:10;;;;;;;0.63;0.60;;;;;;;;;;5028799;28;20287;-51
2021/03/15 02:20:41;;;;;;;1.02;0.93;;;;;;;;;;5030486;28;20180;-51
2021/03/15 02:23:10;;;;;;;0.80;0.80;;;;;;;;;;5030464;28;20249;-51
2021/03/15 02:25:42;;;;;;;1.48;0.75;;;;;;;;;;5017372;28;20180;-51
2021/03/15 02:28:37;;;;;;;0.85;0.80;;;;;;;;;;5026017;28;20576;-50
2021/03/15 02:31:15;;;;;;;0.95;0.85;;;;;;;;;;5033347;28;20179;-50
2021/03/15 02:34:19;;;;;;;0.73;0.60;;;;;;;;;;5026574;28;20244;-50
2021/03/15 02:36:46;;;;;;;0.80;0.70;;;;;;;;;;4983700;28;20713;-50
2021/03/15 02:39:21;;;;;;;1.02;0.68;;;;;;;;;;4976782;28;20194;-50
2021/03/15 02:41:49;;;;;;;1.00;0.90;;;;;;;;;;5004515;28;20282;-50
2021/03/15 02:44:16;;;;;;;0.68;0.60;;;;;;;;;;5021283;28;20222;-50
2021/03/15 02:46:44;;;;;;;0.65;0.65;;;;;;;;;;5014747;28;20485;-50
2021/03/15 02:49:13;;;;;;;0.73;0.73;;;;;;;;;;5014584;28;20583;-50
2021/03/15 02:51:40;;;;;;;1.40;0.80;;;;;;;;;;5032631;28;20229;-50
2021/03/15 02:54:06;;;;;;;0.70;0.70;;;;;;;;;;5029709;28;20683;-51
2021/03/15 02:56:33;;;;;;;0.55;0.50;;;;;;;;;;5037205;28;20195;-51
2021/03/15 02:59:03;;;;;;;0.70;0.70;;;;;;;;;;5033267;28;20176;-51
2021/03/15 03:01:30;;;;;;;0.70;0.70;;;;;;;;;;5019304;28;20243;-51
2021/03/15 03:03:56;;;;;;;1.33;0.73;;;;;;;;;;5021848;28;20435;-51
2021/03/15 03:06:24;;;;;;;0.80;0.80;;;;;;;;;;5031807;28;20267;-51
2021/03/15 03:08:51;;;;;;;0.70;0.70;;;;;;;;;;5018078;28;20184;-51
2021/03/15 03:11:18;;;;;;;0.75;0.70;;;;;;;;;;5022033;28;20424;-51
2021/03/15 03:13:44;;;;;;;0.90;0.70;;;;;;;;;;5029145;28;20180;-52
2021/03/15 03:16:10;;;;;;;0.65;0.63;;;;;;;;;;5027995;28;20259;-51
2021/03/15 03:18:38;;;;;;;0.98;0.88;;;;;;;;;;5028730;28;20191;-51
2021/03/15 03:21:05;;;;;;;0.60;0.60;;;;;;;;;;5018017;28;20172;-51
2021/03/15 03:23:32;;;;;;;0.70;0.60;;;;;;;;;;5028718;28;20650;-51
2021/03/15 03:25:59;;;;;;;0.98;0.80;;;;;;;;;;5021007;28;20191;-51
2021/03/15 03:28:26;;;;;;;0.80;0.80;;;;;;;;;;5025536;28;20176;-51
2021/03/15 03:30:52;;;;;;;1.13;0.60;;;;;;;;;;5027613;28;20238;-51
2021/03/15 03:33:20;;;;;;;0.68;0.68;;;;;;;;;;5036971;28;20168;-51
2021/03/15 03:35:47;;;;;;;0.68;0.68;;;;;;;;;;5017299;28;20212;-51
2021/03/15 03:38:13;;;;;;;0.73;0.70;;;;;;;;;;5018227;28;20187;-51
2021/03/15 03:40:39;;;;;;;0.77;0.70;;;;;;;;;;5018679;28;20188;-51
2021/03/15 03:43:05;;;;;;;0.70;0.70;;;;;;;;;;5017437;28;20227;-51
2021/03/15 03:45:31;;;;;;;0.77;0.70;;;;;;;;;;5033001;28;20241;-51
2021/03/15 03:47:58;;;;;;;0.85;0.70;;;;;;;;;;5037129;28;20176;-51
2021/03/15 03:50:25;;;;;;;0.70;0.70;;;;;;;;;;5036828;28;20200;-51
2021/03/15 03:52:51;;;;;;;1.20;0.90;;;;;;;;;;5032615;28;20185;-51
2021/03/15 03:55:19;;;;;;;0.60;0.60;;;;;;;;;;5025848;28;20184;-51
2021/03/15 03:57:47;;;;;;;0.63;0.63;;;;;;;;;;5033119;28;20227;-51
2021/03/15 04:00:14;;;;;;;1.88;0.73;;;;;;;;;;5016698;28;20185;-51
2021/03/15 04:02:51;;;;;;;1.15;0.55;;;;;;;;;;5017227;28;20448;-51
2021/03/15 04:05:22;;;;;;;0.77;0.70;;;;;;;;;;5030257;28;20450;-51
2021/03/15 04:07:51;;;;;;;0.73;0.60;;;;;;;;;;5033816;28;20184;-51
2021/03/15 04:10:17;;;;;;;1.27;0.70;;;;;;;;;;5035582;28;20203;-51
2021/03/15 04:12:51;;;;;;;0.70;0.70;;;;;;;;;;5024188;28;20175;-51
2021/03/15 04:15:18;;;;;;;0.90;0.73;;;;;;;;;;5035779;28;20180;-51
2021/03/15 04:17:44;;;;;;;0.88;0.70;;;;;;;;;;5036540;28;20203;-51
2021/03/15 04:20:15;;;;;;;0.70;0.70;;;;;;;;;;5036259;28;20479;-51
2021/03/15 04:22:46;;;;;;;0.60;0.60;;;;;;;;;;5017870;28;20191;-51
2021/03/15 04:25:12;;;;;;;0.80;0.80;;;;;;;;;;5027959;28;20567;-51
2021/03/15 04:27:38;;;;;;;0.60;0.60;;;;;;;;;;5023787;28;20267;-51
2021/03/15 04:30:05;;;;;;;0.65;0.65;;;;;;;;;;5036399;28;20215;-51
2021/03/15 04:32:31;;;;;;;1.50;0.70;;;;;;;;;;5026651;28;20176;-51
2021/03/15 04:34:58;;;;;;;0.98;0.60;;;;;;;;;;5021448;28;20187;-51
2021/03/15 04:37:25;;;;;;;0.50;0.50;;;;;;;;;;5018722;28;20261;-51
2021/03/15 04:39:51;;;;;;;0.70;0.50;;;;;;;;;;5020738;28;20447;-51
2021/03/15 04:42:18;;;;;;;0.57;0.57;;;;;;;;;;5031644;28;20183;-51
2021/03/15 04:44:44;;;;;;;0.70;0.70;;;;;;;;;;5016462;28;20605;-51
2021/03/15 04:47:13;;;;;;;2.33;0.80;;;;;;;;;;5017935;28;20191;-51
2021/03/15 04:49:40;;;;;;;6.65;1.58;;;;;;;;;;5023136;28;20261;-51
2021/03/15 04:52:06;;;;;;;8.93;2.15;;;;;;;;;;5035065;28;20200;-51
2021/03/15 04:54:33;;;;;;;8.40;1.73;;;;;;;;;;5019118;28;20188;-50
2021/03/15 04:56:59;;;;;;;9.10;2.15;;;;;;;;;;5026128;28;20499;-50
2021/03/15 04:59:26;;;;;;;4.72;1.42;;;;;;;;;;5020889;28;20188;-50
2021/03/15 05:01:52;;;;;;;7.90;1.77;;;;;;;;;;5034330;28;20208;-50
2021/03/15 05:04:22;;;;;;;6.28;1.90;;;;;;;;;;5034393;28;20251;-50
2021/03/15 05:06:48;;;;;;;3.00;1.40;;;;;;;;;;5022203;28;20188;-51
2021/03/15 05:09:16;;;;;;;6.25;1.55;;;;;;;;;;5033824;28;20219;-51
2021/03/15 05:11:42;;;;;;;5.72;1.60;;;;;;;;;;5030072;28;20462;-51
2021/03/15 05:14:09;;;;;;;3.63;1.02;;;;;;;;;;5034924;28;20176;-51
2021/03/15 05:16:36;;;;;;;4.10;1.35;;;;;;;;;;5035507;28;20178;-51
2021/03/15 05:19:03;;;;;;;3.33;1.17;;;;;;;;;;5020589;28;20189;-51
2021/03/15 05:21:30;;;;;;;5.18;1.50;;;;;;;;;;5023401;28;20220;-51
2021/03/15 05:23:57;;;;;;;4.63;1.70;;;;;;;;;;5026577;28;20233;-53
2021/03/15 05:26:23;;;;;;;3.30;1.20;;;;;;;;;;5028125;28;20203;-51
2021/03/15 05:28:50;;;;;;;5.72;1.35;;;;;;;;;;5021244;28;20184;-51
2021/03/15 05:31:17;;;;;;;2.97;1.10;;;;;;;;;;5015557;28;20248;-51
2021/03/15 05:33:44;;;;;;;2.78;1.33;;;;;;;;;;5026814;28;20656;-51
2021/03/15 05:36:11;;;;;;;3.35;1.30;;;;;;;;;;5034647;28;20168;-51
2021/03/15 05:38:38;;;;;;;4.28;1.20;;;;;;;;;;5022897;28;20492;-51
2021/03/15 05:41:04;;;;;;;3.22;1.10;;;;;;;;;;5032432;28;20199;-51
2021/03/15 05:43:32;;;;;;;2.83;1.23;;;;;;;;;;5025628;28;20183;-51
2021/03/15 05:46:08;;;;;;;2.42;1.10;;;;;;;;;;5034145;28;20183;-51
2021/03/15 05:48:38;;;;;;;1.38;0.82;;;;;;;;;;5025941;28;20252;-51
2021/03/15 05:51:07;;;;;;;3.20;1.08;;;;;;;;;;5016446;28;20211;-51
2021/03/15 05:53:48;;;;;;;2.83;1.10;;;;;;;;;;5022531;28;20181;-51
2021/03/15 05:56:33;;;;;;;3.40;1.10;;;;;;;;;;5018768;28;20613;-51
2021/03/15 05:59:18;;;;;;;5.55;1.20;;;;;;;;;;5037379;28;20179;-51
2021/03/15 06:02:11;;;;;;;3.95;1.25;;;;;;;;;;5030704;28;20214;-51
2021/03/15 06:04:40;;;;;;;1.70;0.90;;;;;;;;;;5013790;28;20171;-51
2021/03/15 06:07:12;;;;;;;1.60;1.00;;;;;;;;;;5020022;28;20180;-51
2021/03/15 06:09:42;;;;;;;2.83;1.20;;;;;;;;;;5019109;28;20204;-51
2021/03/15 06:12:13;;;;;;;1.40;0.90;;;;;;;;;;5019507;28;20462;-51
2021/03/15 06:14:39;;;;;;;1.70;0.95;;;;;;;;;;5020873;28;20192;-51
2021/03/15 06:17:06;;;;;;;1.70;0.90;;;;;;;;;;5023040;28;20171;-51
2021/03/15 06:19:33;;;;;;;3.08;1.20;;;;;;;;;;5034035;28;20247;-51
2021/03/15 06:21:59;;;;;;;4.35;1.20;;;;;;;;;;5027775;28;20291;-51
2021/03/15 06:24:25;;;;;;;4.68;1.17;;;;;;;;;;5034526;28;20175;-51
2021/03/15 06:26:51;;;;;;;2.53;1.05;;;;;;;;;;5030373;28;20551;-51
2021/03/15 06:29:18;;;;;;;1.73;1.00;;;;;;;;;;5014838;28;20248;-51
2021/03/15 06:31:49;;;;;;;2.40;0.88;;;;;;;;;;5034850;28;20226;-51
2021/03/15 06:34:15;;;;;;;1.85;1.02;;;;;;;;;;5030201;28;20475;-51
2021/03/15 06:36:43;;;;;;;2.45;1.02;;;;;;;;;;5034760;28;20230;-51
2021/03/15 06:39:13;;;;;;;2.17;0.80;;;;;;;;;;5037539;28;20188;-51
2021/03/15 06:41:42;;;;;;;1.80;0.95;;;;;;;;;;5027437;28;20195;-51
2021/03/15 06:44:09;;;;;;;3.63;0.90;;;;;;;;;;5031711;28;20222;-51
2021/03/15 06:46:36;;;;;;;1.23;0.75;;;;;;;;;;5018265;28;20248;-51
2021/03/15 06:49:02;;;;;;;1.50;0.90;;;;;;;;;;5019541;28;20490;-51
2021/03/15 06:51:28;;;;;;;2.53;0.82;;;;;;;;;;5024292;28;20206;-51
2021/03/15 06:53:54;;;;;;;2.33;0.90;;;;;;;;;;5033809;28;20171;-51
2021/03/15 06:56:20;;;;;;;3.88;0.80;;;;;;;;;;5026958;28;20271;-51
2021/03/15 06:58:48;;;;;;;2.03;0.80;;;;;;;;;;5044689;28;20207;-51
2021/03/15 07:01:15;;;;;;;1.20;0.82;;;;;;;;;;5025189;28;20237;-51
2021/03/15 07:03:42;;;;;;;1.10;0.80;;;;;;;;;;5036829;28;20182;-51
2021/03/15 07:06:09;;;;;;;1.58;0.80;;;;;;;;;;5038876;28;20241;-52
2021/03/15 07:08:35;;;;;;;1.50;0.50;;;;;;;;;;5024924;28;20495;-51
2021/03/15 07:11:01;;;;;;;1.83;0.70;;;;;;;;;;5035244;28;20224;-51
2021/03/15 07:13:33;;;;;;;0.50;0.50;;;;;;;;;;5035850;28;20187;-52
2021/03/15 07:16:00;;;;;;;1.33;0.80;;;;;;;;;;5021814;28;20547;-51
2021/03/15 07:18:27;;;;;;;3.15;0.60;;;;;;;;;;5024826;28;20184;-52
2021/03/15 07:20:54;;;;;;;1.95;0.73;;;;;;;;;;5019091;28;20571;-52
2021/03/15 07:23:47;;;;;;;1.50;0.82;;;;;;;;;;5020198;28;20176;-52
2021/03/15 07:26:17;;;;;;;3.97;0.80;;;;;;;;;;5032284;28;20195;-51
2021/03/15 07:28:44;;;;;;;1.08;0.80;;;;;;;;;;5035790;28;20210;-51
2021/03/15 07:31:20;;;;;;;1.45;0.68;;;;;;;;;;5032047;28;20778;-51
2021/03/15 07:33:55;;;;;;;2.15;1.02;;;;;;;;;;5026625;28;20433;-51
2021/03/15 07:36:21;;;;;;;2.40;0.80;;;;;;;;;;5032084;28;20198;-51
2021/03/15 07:38:48;;;;;;;1.52;0.80;;;;;;;;;;5030136;28;20191;-51
2021/03/15 07:41:14;;;;;;;2.03;0.70;;;;;;;;;;5030279;28;20173;-51
2021/03/15 07:43:41;;;;;;;2.85;1.02;;;;;;;;;;5018179;28;20502;-51
2021/03/15 07:46:20;;;;;;;1.50;0.90;;;;;;;;;;5017238;28;20751;-52
2021/03/15 07:48:46;;;;;;;1.23;0.75;;;;;;;;;;5017410;28;20259;-52
2021/03/15 07:51:12;;;;;;;1.25;0.82;;;;;;;;;;5029831;28;20182;-52
2021/03/15 07:53:47;;;;;;;2.20;0.90;;;;;;;;;;5035290;28;20180;-51
2021/03/15 07:56:18;;;;;;;3.42;1.00;;;;;;;;;;5029930;28;20506;-51
2021/03/15 07:58:44;;;;;;;1.77;1.00;;;;;;;;;;5025060;28;20180;-51
2021/03/15 08:01:12;;;;;;;2.72;0.70;;;;;;;;;;5017130;28;20622;-51
2021/03/15 08:03:38;;;;;;;0.70;0.70;;;;;;;;;;5028561;28;20180;-51
2021/03/15 08:06:05;;;;;;;1.05;0.60;;;;;;;;;;5027465;28;20188;-51
2021/03/15 08:08:31;;;;;;;0.90;0.70;;;;;;;;;;5023438;28;20202;-51
2021/03/15 08:10:57;;;;;;;1.23;0.63;;;;;;;;;;5018175;28;20279;-51
2021/03/15 08:13:28;;;;;;;1.55;0.90;;;;;;;;;;5018180;28;20181;-52
2021/03/15 08:15:58;;;;;;;4.28;0.90;;;;;;;;;;5028517;28;20176;-52
2021/03/15 08:18:24;;;;;;;0.73;0.70;;;;;;;;;;5035152;28;20184;-51
2021/03/15 08:20:52;;;;;;;1.40;0.90;;;;;;;;;;5034134;28;20210;-52
2021/03/15 08:23:19;;;;;;;2.50;0.82;;;;;;;;;;5033428;28;20508;-51
2021/03/15 08:25:46;;;;;;;3.80;1.05;;;;;;;;;;5034652;28;20175;-51
2021/03/15 08:28:13;;;;;;;3.63;0.90;;;;;;;;;;5031192;28;20599;-51
2021/03/15 08:30:44;;;;;;;2.97;0.93;;;;;;;;;;5036551;28;20453;-51
2021/03/15 08:33:13;;;;;;;2.28;1.23;;;;;;;;;;5030496;28;20184;-51
2021/03/15 08:35:39;;;;;;;2.88;1.30;;;;;;;;;;5016262;28;20562;-51
2021/03/15 08:38:06;;;;;;;3.65;1.40;;;;;;;;;;5016483;28;20176;-51
2021/03/15 08:40:41;;;;;;;2.50;1.13;;;;;;;;;;5016887;28;20184;-51
2021/03/15 08:43:16;;;;;;;3.20;1.65;;;;;;;;;;5016589;28;20234;-51
2021/03/15 08:45:46;;;;;;;6.70;1.88;;;;;;;;;;5015903;28;20210;-51
2021/03/15 08:48:12;;;;;;;6.22;3.20;;;;;;;;;;5016347;28;20180;-51
2021/03/15 08:50:38;;;;;;;7.63;2.95;;;;;;;;;;5016355;28;20231;-51
2021/03/15 08:53:04;;;;;;;9.90;3.00;;;;;;;;;;5017264;28;20214;-51
2021/03/15 08:55:49;;;;;;;9.75;2.85;;;;;;;;;;5032565;28;20180;-51
2021/03/15 08:58:33;;;;;;;9.05;3.00;;;;;;;;;;5052364;28;20175;-51
2021/03/15 09:00:59;;;;;;;3.38;2.15;;;;;;;;;;5055785;28;20207;-51
2021/03/15 09:03:44;;;;;;;7.40;2.70;;;;;;;;;;5055714;28;20171;-51
2021/03/15 09:06:10;;;;;;;4.95;2.13;;;;;;;;;;5055058;28;20179;-51
2021/03/15 09:08:54;;;;;;;7.00;2.45;;;;;;;;;;5030335;28;20204;-51
2021/03/15 09:11:35;;;;;;;4.45;2.13;;;;;;;;;;5022065;28;20187;-51
2021/03/15 09:14:14;;;;;;;5.90;2.38;;;;;;;;;;5035514;28;20455;-51
2021/03/15 09:16:49;;;;;;;4.95;2.30;;;;;;;;;;5034390;28;20297;-51
2021/03/15 09:19:25;;;;;;;4.13;1.70;;;;;;;;;;5028905;28;20263;-51
2021/03/15 09:21:54;;;;;;;3.83;1.88;;;;;;;;;;5015826;28;20215;-51
2021/03/15 09:24:35;;;;;;;7.50;2.25;;;;;;;;;;5022833;28;20172;-51
2021/03/15 09:27:02;;;;;;;5.05;1.83;;;;;;;;;;5021070;28;20238;-51
2021/03/15 09:29:30;;;;;;;3.03;1.80;;;;;;;;;;5015573;28;20230;-51
2021/03/15 09:32:14;;;;;;;4.47;1.92;;;;;;;;;;5027301;28;20219;-51
2021/03/15 09:34:40;;;;;;;5.60;1.80;;;;;;;;;;5034484;28;20168;-51
2021/03/15 09:37:06;;;;;;;5.78;2.17;;;;;;;;;;5030653;28;20440;-51
2021/03/15 09:39:32;;;;;;;3.92;1.80;;;;;;;;;;5023943;28;20179;-51
2021/03/15 09:41:59;;;;;;;4.72;2.20;;;;;;;;;;5030376;28;20203;-51
2021/03/15 09:44:27;;;;;;;4.95;1.73;;;;;;;;;;5026968;28;20180;-51
2021/03/15 09:46:54;;;;;;;7.07;2.10;;;;;;;;;;5031217;28;20267;-51
2021/03/15 09:49:32;;;;;;;7.72;1.85;;;;;;;;;;5034717;28;20293;-51
2021/03/15 09:52:10;;;;;;;2.75;1.70;;;;;;;;;;5034870;28;20176;-51
2021/03/15 09:54:47;;;;;;;3.63;1.88;;;;;;;;;;5034832;28;20172;-51
2021/03/15 09:57:14;;;;;;;5.85;1.92;;;;;;;;;;5041937;28;20209;-51
2021/03/15 09:59:40;;;;;;;4.28;1.85;;;;;;;;;;5028440;28;20188;-51
2021/03/15 10:02:07;;;;;;;4.50;1.63;;;;;;;;;;5015344;28;20287;-51
2021/03/15 10:04:37;;;;;;;3.33;1.58;;;;;;;;;;5029824;28;20551;-51
2021/03/15 10:07:05;;;;;;;6.82;1.98;;;;;;;;;;5018801;28;20610;-50
2021/03/15 10:09:31;;;;;;;4.18;2.10;;;;;;;;;;5019401;28;20228;-50
2021/03/15 10:11:59;;;;;;;6.22;1.80;;;;;;;;;;5019485;28;20476;-50
2021/03/15 10:14:25;;;;;;;4.15;2.10;;;;;;;;;;5022415;28;20176;-50
2021/03/15 10:16:58;;;;;;;4.07;2.25;;;;;;;;;;5029984;28;20180;-50
2021/03/15 10:19:27;;;;;;;5.88;2.50;;;;;;;;;;5039227;28;20559;-50
2021/03/15 10:21:53;;;;;;;6.45;2.33;;;;;;;;;;5038538;28;20566;-50
2021/03/15 10:24:32;;;;;;;4.43;2.75;;;;;;;;;;5038487;28;20180;-50
2021/03/15 10:26:58;;;;;;;6.45;2.20;;;;;;;;;;5033054;28;20318;-50
2021/03/15 10:29:25;;;;;;;6.07;2.35;;;;;;;;;;5025665;28;20291;-51
2021/03/15 10:31:51;;;;;;;5.90;2.30;;;;;;;;;;5028754;28;20540;-51
2021/03/15 10:34:17;;;;;;;6.80;2.55;;;;;;;;;;5027206;28;20179;-50
2021/03/15 10:36:43;;;;;;;9.50;2.53;;;;;;;;;;5018829;28;20168;-50
2021/03/15 10:39:10;;;;;;;5.63;2.17;;;;;;;;;;5031909;28;20179;-50
2021/03/15 10:41:40;;;;;;;5.93;2.40;;;;;;;;;;5038198;28;20176;-50
2021/03/15 10:44:07;;;;;;;7.32;2.78;;;;;;;;;;5025216;28;20191;-50
2021/03/15 10:46:45;;;;;;;6.15;2.50;;;;;;;;;;5027855;28;20194;-50
2021/03/15 10:49:17;;;;;;;6.15;2.60;;;;;;;;;;5019029;28;20250;-51
2021/03/15 10:51:45;;;;;;;7.35;2.70;;;;;;;;;;5037264;28;20217;-50
2021/03/15 10:54:12;;;;;;;6.95;2.55;;;;;;;;;;5037618;28;20263;-51
2021/03/15 10:56:38;;;;;;;7.40;2.75;;;;;;;;;;5037985;28;20643;-50
2021/03/15 10:59:04;;;;;;;5.95;2.78;;;;;;;;;;5025544;28;20184;-50
2021/03/15 11:01:30;;;;;;;5.20;2.63;;;;;;;;;;5031499;28;20199;-50
2021/03/15 11:04:12;;;;;;;5.43;2.58;;;;;;;;;;5036991;28;20255;-50
2021/03/15 11:06:38;;;;;;;6.25;2.92;;;;;;;;;;5035784;28;20262;-50
2021/03/15 11:09:04;;;;;;;4.40;2.40;;;;;;;;;;5030896;28;20570;-50
2021/03/15 11:11:31;;;;;;;7.68;3.03;;;;;;;;;;5018478;28;20523;-50
2021/03/15 11:13:58;;;;;;;5.55;2.90;;;;;;;;;;5036540;28;20164;-50
2021/03/15 11:16:29;;;;;;;9.40;3.03;;;;;;;;;;5019723;28;20235;-50
2021/03/15 11:19:04;;;;;;;7.13;2.85;;;;;;;;;;5036189;28;20435;-50
2021/03/15 11:21:31;;;;;;;7.03;2.80;;;;;;;;;;5031541;28;20183;-50
2021/03/15 11:23:59;;;;;;;9.27;3.08;;;;;;;;;;5017584;28;20191;-51
2021/03/15 11:26:25;;;;;;;7.70;2.95;;;;;;;;;;5022493;28;20504;-51
2021/03/15 11:28:56;;;;;;;61.95;14.45;;;;;;;;;;5019333;28;20187;-51
2021/03/15 11:31:23;;;;;;;138.57;28.50;;;;;;;;;;5030333;28;20207;-51
2021/03/15 11:33:52;;;;;;;117.57;24.83;;;;;;;;;;5023408;28;20187;-50
2021/03/15 11:36:20;;;;;;;114.10;24.58;;;;;;;;;;5035703;28;20206;-50
2021/03/15 11:38:54;;;;;;;95.22;21.15;;;;;;;;;;5023330;28;20183;-50
2021/03/15 11:41:21;;;;;;;94.57;20.20;;;;;;;;;;5037453;28;20183;-50
2021/03/15 11:43:48;;;;;;;81.45;18.95;;;;;;;;;;5023654;28;20502;-51
2021/03/15 11:46:14;;;;;;;81.13;19.15;;;;;;;;;;5029554;28;20172;-51
2021/03/15 11:48:40;;;;;;;84.13;20.40;;;;;;;;;;5031162;28;20201;-51
2021/03/15 11:51:07;;;;;;;77.75;20.25;;;;;;;;;;5030650;28;20335;-50
2021/03/15 11:53:33;;;;;;;94.60;20.48;;;;;;;;;;5033561;28;20229;-50
2021/03/15 11:55:59;;;;;;;78.75;20.10;;;;;;;;;;5018818;28;20193;-50
2021/03/15 11:58:25;;;;;;;82.20;20.48;;;;;;;;;;5040420;28;20187;-50
2021/03/15 12:00:51;;;;;;;66.38;18.45;;;;;;;;;;5030288;28;20204;-51
2021/03/15 12:03:17;;;;;;;79.72;19.23;;;;;;;;;;5016818;28;20187;-51
2021/03/15 12:05:43;;;;;;;65.15;18.45;;;;;;;;;;5017386;28;20507;-51
2021/03/15 12:08:09;;;;;;;68.93;18.48;;;;;;;;;;5016854;28;20446;-51
2021/03/15 12:10:36;;;;;;;76.90;19.40;;;;;;;;;;5029808;28;20204;-51
2021/03/15 12:13:02;;;;;;;78.32;20.42;;;;;;;;;;5016995;28;20580;-50
2021/03/15 12:15:28;;;;;;;74.28;19.13;;;;;;;;;;5016671;28;20411;-50
2021/03/15 12:17:54;;;;;;;69.38;18.83;;;;;;;;;;5027617;28;20423;-50
2021/03/15 12:20:20;;;;;;;63.17;16.40;;;;;;;;;;5030916;28;20190;-50
2021/03/15 12:22:48;;;;;;;70.38;18.15;;;;;;;;;;5035880;28;20175;-50
2021/03/15 12:25:14;;;;;;;55.17;16.75;;;;;;;;;;5036087;28;20419;-50
2021/03/15 12:27:40;;;;;;;63.83;16.98;;;;;;;;;;5032315;28;20184;-50
2021/03/15 12:30:07;;;;;;;52.78;15.13;;;;;;;;;;5032550;28;20258;-50
2021/03/15 12:32:33;;;;;;;48.30;14.90;;;;;;;;;;5024989;28;20454;-51
2021/03/15 12:34:59;;;;;;;46.13;15.20;;;;;;;;;;5052006;28;20176;-51
2021/03/15 12:37:25;;;;;;;46.75;14.82;;;;;;;;;;5031934;28;20219;-51
2021/03/15 12:39:51;;;;;;;46.00;14.05;;;;;;;;;;5032227;28;20301;-50
2021/03/15 12:42:17;;;;;;;46.53;14.57;;;;;;;;;;5035795;28;20442;-50
2021/03/15 12:44:44;;;;;;;51.40;14.77;;;;;;;;;;5035645;28;20190;-50
2021/03/15 12:47:10;;;;;;;39.38;14.10;;;;;;;;;;5023916;28;20600;-51
2021/03/15 12:49:36;;;;;;;44.65;14.23;;;;;;;;;;5015812;28;20204;-51
2021/03/15 12:52:03;;;;;;;40.17;13.20;;;;;;;;;;5014478;28;20164;-51
2021/03/15 12:54:29;;;;;;;39.95;12.52;;;;;;;;;;5016736;28;20234;-51
2021/03/15 12:56:56;;;;;;;42.50;13.35;;;;;;;;;;5027382;28;20178;-51
2021/03/15 12:59:22;;;;;;;41.60;13.48;;;;;;;;;;5021039;28;20185;-51
2021/03/15 13:01:48;;;;;;;38.90;13.40;;;;;;;;;;5015826;28;20715;-51
2021/03/15 13:04:14;;;;;;;35.83;11.40;;;;;;;;;;5015569;28;20215;-51
2021/03/15 13:06:41;;;;;;;39.20;11.48;;;;;;;;;;5016036;28;20173;-51
2021/03/15 13:09:07;;;;;;;34.22;11.60;;;;;;;;;;5017028;28;20180;-51
2021/03/15 13:11:33;;;;;;;32.67;11.65;;;;;;;;;;5031873;28;20263;-51
2021/03/15 13:13:59;;;;;;;33.88;10.77;;;;;;;;;;5035395;28;20168;-51
2021/03/15 13:16:26;;;;;;;31.13;11.10;;;;;;;;;;5035194;28;20175;-51
2021/03/15 13:18:52;;;;;;;27.48;10.13;;;;;;;;;;5035742;28;20442;-51
2021/03/15 13:21:18;;;;;;;33.67;11.07;;;;;;;;;;5035677;28;20539;-51
2021/03/15 13:23:45;;;;;;;29.38;10.10;;;;;;;;;;5025196;28;20183;-51
2021/03/15 13:26:11;;;;;;;29.70;9.98;;;;;;;;;;5026363;28;20191;-51
2021/03/15 13:28:37;;;;;;;31.30;10.32;;;;;;;;;;5033680;28;20474;-51
2021/03/15 13:31:03;;;;;;;27.00;10.13;;;;;;;;;;5015606;28;20200;-51
2021/03/15 13:33:29;;;;;;;28.95;10.25;;;;;;;;;;5031367;28;20266;-51
2021/03/15 13:35:55;;;;;;;23.13;9.25;;;;;;;;;;5034735;28;20326;-51
2021/03/15 13:38:22;;;;;;;24.83;8.88;;;;;;;;;;5034851;28;20279;-51
2021/03/15 13:40:48;;;;;;;24.50;9.32;;;;;;;;;;5033204;28;20183;-51
2021/03/15 13:43:14;;;;;;;20.85;8.80;;;;;;;;;;5023323;28;20184;-51
2021/03/15 13:45:42;;;;;;;21.83;8.35;;;;;;;;;;5014843;28;20205;-51
2021/03/15 13:48:08;;;;;;;20.33;7.95;;;;;;;;;;5029627;28;20562;-51
2021/03/15 13:50:35;;;;;;;18.60;7.53;;;;;;;;;;5035212;28;20274;-51
2021/03/15 13:53:01;;;;;;;20.42;7.32;;;;;;;;;;5033518;28;20234;-51
2021/03/15 13:55:27;;;;;;;21.52;8.10;;;;;;;;;;5034649;28;20221;-51
2021/03/15 13:57:54;;;;;;;18.83;7.13;;;;;;;;;;5025816;28;20176;-51
2021/03/15 14:00:20;;;;;;;19.60;8.07;;;;;;;;;;5025850;28;20188;-51
2021/03/15 14:02:47;;;;;;;16.35;7.47;;;;;;;;;;5015212;28;20475;-51
2021/03/15 14:05:13;;;;;;;19.38;7.20;;;;;;;;;;5027017;28;20206;-51
2021/03/15 14:07:39;;;;;;;18.20;7.18;;;;;;;;;;5028353;28;20569;-51
2021/03/15 14:10:06;;;;;;;18.45;7.38;;;;;;;;;;5034902;28;20262;-51
2021/03/15 14:12:32;;;;;;;16.67;6.60;;;;;;;;;;5018648;28;20181;-51
2021/03/15 14:14:58;;;;;;;16.02;6.40;;;;;;;;;;5023908;28;20442;-51
2021/03/15 14:17:25;;;;;;;17.33;7.00;;;;;;;;;;5034199;28;20463;-51
2021/03/15 14:19:51;;;;;;;15.15;6.65;;;;;;;;;;5024795;28;20210;-51
2021/03/15 14:22:18;;;;;;;16.88;6.25;;;;;;;;;;5022548;28;21744;-51
2021/03/15 14:24:44;;;;;;;15.93;6.47;;;;;;;;;;5014744;28;20185;-51
2021/03/15 14:27:10;;;;;;;15.15;6.35;;;;;;;;;;5019276;28;20222;-51
2021/03/15 14:29:36;;;;;;;16.35;7.00;;;;;;;;;;5025486;28;20644;-51
2021/03/15 14:32:02;;;;;;;16.02;6.05;;;;;;;;;;5034095;28;20180;-51
2021/03/15 14:34:28;;;;;;;16.05;6.15;;;;;;;;;;5034574;28;20172;-51
2021/03/15 14:36:54;;;;;;;15.68;6.30;;;;;;;;;;5030714;28;20188;-51
2021/03/15 14:39:20;;;;;;;13.73;5.53;;;;;;;;;;5014973;28;20192;-51
2021/03/15 14:41:47;;;;;;;16.73;6.20;;;;;;;;;;5014978;28;20243;-51
2021/03/15 14:44:14;;;;;;;11.48;5.80;;;;;;;;;;5025104;28;20172;-51